createdAt,value
2018-12-09T00:00:43.122Z,97.66
2018-12-09T00:03:08.962Z,98.02
2018-12-09T00:05:34.886Z,97.81
2018-12-09T00:08:00.723Z,97.04
2018-12-09T00:10:26.675Z,96.93
2018-12-09T00:12:52.417Z,97.71
2018-12-09T00:15:18.156Z,97.66
2018-12-09T00:17:44.008Z,96.75
2018-12-09T00:20:11.038Z,97.26
2018-12-09T00:22:36.764Z,96.94
2018-12-09T00:25:02.924Z,97.02
2018-12-09T00:27:28.666Z,97.30
2018-12-09T00:29:54.390Z,97.62
2018-12-09T00:32:20.124Z,97.39
2018-12-09T00:34:45.863Z,97.11
2018-12-09T00:37:12.006Z,97.27
2018-12-09T00:39:38.762Z,97.60
2018-12-09T00:42:04.872Z,96.84
2018-12-09T00:44:30.628Z,97.50
2018-12-09T00:46:58.291Z,97.90
2018-12-09T00:49:24.020Z,97.66
2018-12-09T00:51:49.846Z,97.50
2018-12-09T00:54:15.580Z,96.83
2018-12-09T00:56:42.546Z,97.02
2018-12-09T00:59:08.431Z,97.46
2018-12-09T01:01:37.172Z,96.72
2018-12-09T01:04:04.038Z,97.68
2018-12-09T01:06:29.887Z,96.98
2018-12-09T01:08:55.806Z,96.89
2018-12-09T01:11:21.740Z,97.30
2018-12-09T01:13:47.486Z,97.84
2018-12-09T01:16:14.154Z,97.28
2018-12-09T01:18:39.899Z,97.08
2018-12-09T01:21:05.787Z,96.83
2018-12-09T01:23:31.607Z,97.88
2018-12-09T01:25:57.345Z,97.26
2018-12-09T01:28:23.079Z,97.28
2018-12-09T01:30:48.880Z,96.87
2018-12-09T01:33:14.622Z,97.36
2018-12-09T01:35:40.379Z,97.39
2018-12-09T01:38:13.173Z,97.92
2018-12-09T01:40:45.336Z,96.70
2018-12-09T01:43:11.183Z,97.79
2018-12-09T01:45:36.928Z,96.73
2018-12-09T01:48:02.782Z,97.86
2018-12-09T01:50:28.641Z,97.43
2018-12-09T01:52:58.486Z,97.34
2018-12-09T01:55:24.546Z,97.26
2018-12-09T01:57:50.275Z,96.76
2018-12-09T02:00:16.239Z,97.77
2018-12-09T02:02:41.995Z,97.62
2018-12-09T02:05:14.646Z,97.77
2018-12-09T02:07:40.387Z,97.73
2018-12-09T02:10:06.347Z,97.30
2018-12-09T02:12:32.088Z,97.20
2018-12-09T02:14:58.254Z,96.86
2018-12-09T02:17:24.499Z,97.45
2018-12-09T02:19:50.691Z,97.35
2018-12-09T02:22:16.430Z,96.80
2018-12-09T02:24:42.271Z,97.33
2018-12-09T02:27:08.128Z,97.23
2018-12-09T02:29:33.879Z,97.96
2018-12-09T02:31:59.640Z,97.68
2018-12-09T02:34:25.594Z,97.71
2018-12-09T02:36:51.442Z,96.66
2018-12-09T02:39:17.186Z,97.51
2018-12-09T02:41:43.031Z,96.54
2018-12-09T02:44:08.762Z,97.62
2018-12-09T02:46:34.920Z,96.35
2018-12-09T02:49:00.780Z,96.49
2018-12-09T02:51:26.627Z,97.26
2018-12-09T02:53:52.363Z,97.38
2018-12-09T02:56:18.202Z,96.50
2018-12-09T02:58:44.054Z,97.20
2018-12-09T03:01:09.911Z,96.16
2018-12-09T03:03:35.835Z,96.96
2018-12-09T03:06:01.680Z,96.71
2018-12-09T03:08:27.415Z,96.38
2018-12-09T03:10:53.263Z,97.14
2018-12-09T03:13:19.395Z,96.90
2018-12-09T03:15:45.148Z,96.78
2018-12-09T03:18:10.900Z,96.01
2018-12-09T03:20:36.732Z,95.52
2018-12-09T03:23:02.478Z,96.24
2018-12-09T03:25:28.204Z,95.71
2018-12-09T03:27:54.047Z,96.02
2018-12-09T03:30:19.997Z,95.65
2018-12-09T03:32:45.816Z,96.16
2018-12-09T03:35:11.761Z,95.89
2018-12-09T03:37:37.499Z,95.64
2018-12-09T03:40:04.167Z,95.31
2018-12-09T03:42:29.995Z,95.29
2018-12-09T03:44:55.714Z,95.06
2018-12-09T03:47:21.559Z,96.11
2018-12-09T03:49:47.412Z,95.69
2018-12-09T03:52:13.246Z,95.66
2018-12-09T03:54:39.283Z,96.26
2018-12-09T03:57:05.235Z,96.59
2018-12-09T03:59:31.058Z,96.53
2018-12-09T04:01:56.904Z,96.39
2018-12-09T04:04:22.730Z,96.14
2018-12-09T04:06:48.600Z,96.20
2018-12-09T04:09:14.433Z,95.52
2018-12-09T04:11:40.392Z,96.51
2018-12-09T04:14:06.123Z,96.31
2018-12-09T04:16:32.390Z,95.60
2018-12-09T04:18:58.215Z,96.18
2018-12-09T04:21:23.961Z,95.95
2018-12-09T04:23:49.702Z,96.31
2018-12-09T04:26:15.448Z,96.38
2018-12-09T04:28:41.277Z,95.91
2018-12-09T04:31:07.047Z,96.63
2018-12-09T04:33:32.903Z,95.89
2018-12-09T04:35:59.058Z,96.91
2018-12-09T04:38:24.899Z,96.46
2018-12-09T04:40:50.666Z,96.96
2018-12-09T04:43:16.515Z,96.97
2018-12-09T04:45:42.347Z,97.14
2018-12-09T04:48:08.107Z,96.38
2018-12-09T04:50:34.172Z,96.71
2018-12-09T04:52:59.919Z,96.00
2018-12-09T04:55:25.746Z,96.16
2018-12-09T04:57:51.615Z,96.31
2018-12-09T05:00:27.402Z,96.86
2018-12-09T05:02:53.144Z,97.33
2018-12-09T05:05:18.890Z,97.29
2018-12-09T05:07:44.662Z,96.57
2018-12-09T05:10:10.429Z,97.10
2018-12-09T05:12:36.199Z,97.64
2018-12-09T05:15:01.953Z,97.09
2018-12-09T05:17:27.787Z,97.48
2018-12-09T05:19:53.625Z,96.46
2018-12-09T05:22:19.374Z,96.82
2018-12-09T05:24:45.126Z,96.91
2018-12-09T05:27:10.865Z,97.59
2018-12-09T05:29:36.827Z,96.69
2018-12-09T05:32:02.639Z,97.73
2018-12-09T05:34:28.382Z,98.09
2018-12-09T05:36:54.443Z,98.03
2018-12-09T05:39:20.302Z,97.32
2018-12-09T05:41:46.127Z,97.78
2018-12-09T05:44:11.982Z,97.22
2018-12-09T05:46:37.714Z,97.77
2018-12-09T05:49:03.534Z,97.58
2018-12-09T05:51:29.249Z,97.64
2018-12-09T05:53:55.119Z,97.53
2018-12-09T05:56:20.953Z,97.12
2018-12-09T05:58:46.679Z,96.79
2018-12-09T06:01:12.525Z,97.09
2018-12-09T06:03:38.291Z,97.97
2018-12-09T06:06:04.128Z,97.73
2018-12-09T06:08:30.094Z,97.85
2018-12-09T06:10:55.943Z,97.14
2018-12-09T06:13:21.994Z,97.18
2018-12-09T06:15:47.942Z,97.09
2018-12-09T06:18:13.717Z,96.94
2018-12-09T06:20:39.575Z,97.85
2018-12-09T06:23:05.466Z,98.23
2018-12-09T06:25:31.309Z,98.31
2018-12-09T06:27:57.477Z,98.21
2018-12-09T06:30:23.254Z,98.31
2018-12-09T06:32:49.035Z,98.32
2018-12-09T06:35:14.953Z,98.42
2018-12-09T06:37:40.894Z,97.94
2018-12-09T06:40:06.738Z,97.75
2018-12-09T06:42:32.768Z,98.27
2018-12-09T06:44:58.625Z,98.23
2018-12-09T06:47:24.467Z,97.45
2018-12-09T06:49:50.429Z,97.54
2018-12-09T06:52:16.275Z,98.35
2018-12-09T06:54:42.006Z,97.61
2018-12-09T06:57:08.276Z,97.91
2018-12-09T06:59:34.032Z,98.01
2018-12-09T07:01:59.763Z,98.03
2018-12-09T07:04:32.592Z,97.28
2018-12-09T07:06:58.329Z,97.34
2018-12-09T07:09:24.202Z,97.99
2018-12-09T07:11:50.365Z,98.16
2018-12-09T07:14:16.134Z,97.94
2018-12-09T07:16:41.970Z,98.35
2018-12-09T07:19:07.854Z,98.31
2018-12-09T07:21:33.657Z,97.48
2018-12-09T07:23:59.434Z,97.94
2018-12-09T07:26:25.598Z,98.64
2018-12-09T07:28:51.451Z,98.48
2018-12-09T07:31:17.186Z,98.47
2018-12-09T07:33:42.931Z,97.55
2018-12-09T07:36:08.701Z,97.96
2018-12-09T07:38:34.467Z,98.33
2018-12-09T07:41:00.655Z,98.10
2018-12-09T07:43:26.535Z,98.05
2018-12-09T07:45:52.295Z,98.37
2018-12-09T07:50:51.110Z,97.61
2018-12-09T07:53:16.838Z,98.31
2018-12-09T07:55:42.595Z,97.81
2018-12-09T07:58:08.447Z,98.09
2018-12-09T08:00:34.206Z,97.68
2018-12-09T08:02:59.925Z,98.56
2018-12-09T08:05:25.655Z,98.27
2018-12-09T08:07:51.370Z,97.22
2018-12-09T08:10:17.129Z,97.50
2018-12-09T08:12:42.955Z,97.47
2018-12-09T08:15:08.795Z,96.69
2018-12-09T08:17:34.522Z,96.54
2018-12-09T08:20:00.382Z,96.76
2018-12-09T08:22:26.206Z,97.44
2018-12-09T08:24:52.102Z,96.57
2018-12-09T08:27:17.954Z,97.35
2018-12-09T08:29:43.695Z,97.24
2018-12-09T08:32:09.423Z,96.80
2018-12-09T08:34:35.182Z,96.80
2018-12-09T08:37:00.907Z,97.86
2018-12-09T08:39:26.627Z,97.48
2018-12-09T08:41:52.476Z,97.75
2018-12-09T08:44:18.203Z,98.12
2018-12-09T08:46:44.067Z,97.34
2018-12-09T08:49:09.794Z,97.49
2018-12-09T08:51:35.534Z,97.02
2018-12-09T08:54:02.774Z,96.23
2018-12-09T08:56:28.830Z,95.62
2018-12-09T08:58:54.578Z,96.00
2018-12-09T09:01:20.321Z,95.64
2018-12-09T09:03:46.056Z,95.51
2018-12-09T09:06:11.825Z,95.59
2018-12-09T09:08:37.676Z,96.51
2018-12-09T09:11:03.504Z,95.79
2018-12-09T09:13:29.246Z,96.50
2018-12-09T09:15:55.001Z,96.22
2018-12-09T09:18:20.755Z,96.38
2018-12-09T09:20:46.627Z,96.45
2018-12-09T09:23:12.463Z,97.41
2018-12-09T09:25:38.350Z,97.67
2018-12-09T09:28:04.166Z,97.66
2018-12-09T09:30:29.985Z,96.88
2018-12-09T09:32:55.707Z,97.16
2018-12-09T09:37:54.014Z,97.54
2018-12-09T09:43:13.330Z,96.96
2018-12-09T09:45:39.143Z,96.80
2018-12-09T09:48:04.979Z,96.65
2018-12-09T09:50:30.706Z,97.25
2018-12-09T09:52:56.462Z,97.38
2018-12-09T09:55:22.311Z,96.23
2018-12-09T09:57:48.073Z,96.87
2018-12-09T10:00:13.829Z,96.80
2018-12-09T10:02:39.680Z,97.15
2018-12-09T10:05:05.627Z,97.14
2018-12-09T10:07:31.385Z,96.32
2018-12-09T10:09:57.122Z,96.48
2018-12-09T10:12:30.075Z,97.46
2018-12-09T10:14:55.802Z,96.32
2018-12-09T10:17:21.528Z,96.52
2018-12-09T10:19:47.273Z,97.33
2018-12-09T10:22:13.126Z,97.12
2018-12-09T10:24:38.878Z,96.94
2018-12-09T10:27:04.634Z,96.83
2018-12-09T10:29:30.460Z,96.15
2018-12-09T10:31:56.186Z,96.35
2018-12-09T10:34:21.921Z,96.80
2018-12-09T10:36:47.661Z,96.95
2018-12-09T10:39:14.652Z,96.45
2018-12-09T10:41:40.433Z,97.16
2018-12-09T10:44:06.658Z,96.40
2018-12-09T10:46:32.931Z,95.84
2018-12-09T10:49:00.118Z,96.79
2018-12-09T10:51:25.839Z,96.78
2018-12-09T10:53:51.601Z,96.63
2018-12-09T10:56:17.354Z,95.96
2018-12-09T10:58:43.114Z,95.19
2018-12-09T11:01:13.726Z,95.92
2018-12-09T11:03:39.475Z,96.04
2018-12-09T11:06:05.303Z,95.19
2018-12-09T11:08:31.025Z,95.27
2018-12-09T11:10:57.191Z,95.78
2018-12-09T11:13:22.922Z,95.28
2018-12-09T11:15:48.642Z,94.50
2018-12-09T11:18:14.491Z,94.98
2018-12-09T11:20:40.441Z,95.28
2018-12-09T11:23:06.170Z,94.08
2018-12-09T11:25:32.002Z,94.49
2018-12-09T11:27:57.778Z,93.79
2018-12-09T11:30:23.622Z,94.60
2018-12-09T11:32:49.464Z,93.80
2018-12-09T11:35:15.313Z,94.46
2018-12-09T11:37:41.055Z,94.34
2018-12-09T11:40:07.089Z,93.98
2018-12-09T11:42:32.842Z,94.37
2018-12-09T11:44:58.599Z,94.28
2018-12-09T11:47:24.543Z,93.90
2018-12-09T11:49:50.306Z,93.12
2018-12-09T11:52:16.070Z,92.55
2018-12-09T11:54:41.952Z,93.25
2018-12-09T11:57:07.787Z,93.31
2018-12-09T11:59:33.652Z,94.41
2018-12-09T12:01:59.395Z,94.47
2018-12-09T12:04:25.223Z,93.71
2018-12-09T12:06:50.962Z,94.20
2018-12-09T12:09:16.811Z,94.34
2018-12-09T12:11:42.693Z,93.59
2018-12-09T12:14:08.446Z,92.97
2018-12-09T12:16:34.290Z,92.60
2018-12-09T12:19:00.046Z,91.58
2018-12-09T12:21:25.782Z,93.78
2018-12-09T12:23:51.498Z,92.89
2018-12-09T12:26:17.589Z,91.59
2018-12-09T12:28:50.549Z,92.09
2018-12-09T12:31:16.419Z,93.89
2018-12-09T12:33:42.150Z,93.00
2018-12-09T12:36:07.882Z,93.79
2018-12-09T12:38:33.782Z,94.12
2018-12-09T12:40:59.675Z,94.18
2018-12-09T12:43:25.513Z,94.42
2018-12-09T12:45:51.372Z,93.92
2018-12-09T12:48:17.122Z,94.69
2018-12-09T12:50:42.963Z,94.45
2018-12-09T12:53:08.801Z,92.62
2018-12-09T12:55:34.643Z,92.48
2018-12-09T12:58:00.458Z,91.90
2018-12-09T13:00:41.528Z,92.54
2018-12-09T13:03:07.375Z,91.80
2018-12-09T13:05:33.219Z,91.41
2018-12-09T13:07:58.961Z,91.08
2018-12-09T13:10:24.699Z,91.07
2018-12-09T13:12:50.535Z,90.34
2018-12-09T13:15:16.494Z,90.76
2018-12-09T13:17:42.356Z,91.81
2018-12-09T13:20:08.202Z,91.79
2018-12-09T13:22:34.026Z,91.76
2018-12-09T13:24:59.773Z,92.10
2018-12-09T13:27:25.635Z,90.87
2018-12-09T13:29:51.378Z,91.30
2018-12-09T13:32:17.208Z,92.42
2018-12-09T13:34:43.045Z,91.84
2018-12-09T13:37:08.882Z,91.77
2018-12-09T13:39:34.751Z,92.04
2018-12-09T13:42:00.591Z,92.53
2018-12-09T13:44:26.419Z,92.30
2018-12-09T13:46:52.152Z,92.74
2018-12-09T13:49:17.943Z,92.24
2018-12-09T13:51:43.786Z,93.58
2018-12-09T13:54:09.512Z,92.89
2018-12-09T13:56:35.229Z,92.34
2018-12-09T13:59:01.169Z,93.25
2018-12-09T14:01:26.921Z,92.74
2018-12-09T14:03:52.659Z,92.46
2018-12-09T14:06:18.501Z,92.38
2018-12-09T14:08:44.358Z,92.08
2018-12-09T14:11:10.222Z,91.42
2018-12-09T14:13:35.979Z,91.19
2018-12-09T14:16:01.718Z,91.27
2018-12-09T14:18:27.647Z,91.55
2018-12-09T14:20:53.358Z,90.39
2018-12-09T14:23:19.068Z,91.03
2018-12-09T14:25:45.003Z,92.32
2018-12-09T14:28:10.789Z,91.78
2018-12-09T14:30:36.528Z,91.71
2018-12-09T14:33:02.629Z,91.89
2018-12-09T14:35:28.378Z,91.08
2018-12-09T14:37:54.132Z,90.80
2018-12-09T14:40:20.083Z,90.93
2018-12-09T14:42:45.934Z,90.85
2018-12-09T14:45:11.749Z,91.06
2018-12-09T14:47:37.594Z,91.11
2018-12-09T14:50:03.714Z,90.42
2018-12-09T14:52:29.450Z,91.47
2018-12-09T14:54:55.162Z,90.79
2018-12-09T14:57:21.006Z,90.70
2018-12-09T14:59:46.742Z,90.81
2018-12-09T15:02:12.468Z,90.84
2018-12-09T15:04:38.218Z,90.03
2018-12-09T15:07:04.066Z,91.17
2018-12-09T15:09:29.902Z,89.69
2018-12-09T15:11:56.056Z,88.55
2018-12-09T15:14:21.897Z,90.06
2018-12-09T15:16:47.638Z,89.83
2018-12-09T15:19:13.386Z,90.46
2018-12-09T15:21:39.124Z,90.07
2018-12-09T15:24:04.874Z,89.48
2018-12-09T15:26:30.798Z,89.70
2018-12-09T15:28:56.766Z,90.60
2018-12-09T15:31:22.497Z,89.40
2018-12-09T15:33:48.241Z,88.75
2018-12-09T15:36:13.964Z,88.98
2018-12-09T15:38:41.999Z,88.96
2018-12-09T15:41:07.733Z,88.93
2018-12-09T15:43:33.465Z,88.06
2018-12-09T15:48:28.626Z,88.57
2018-12-09T15:50:54.673Z,87.59
2018-12-09T15:53:20.510Z,87.75
2018-12-09T15:55:46.222Z,88.71
2018-12-09T15:58:11.942Z,88.09
2018-12-09T16:00:39.702Z,87.87
2018-12-09T16:03:05.497Z,88.14
2018-12-09T16:05:31.219Z,86.93
2018-12-09T16:07:56.954Z,85.45
2018-12-09T16:10:22.786Z,85.39
2018-12-09T16:12:48.642Z,84.59
2018-12-09T16:15:14.370Z,85.69
2018-12-09T16:17:40.122Z,84.66
2018-12-09T16:20:05.945Z,84.48
2018-12-09T16:22:31.662Z,84.48
2018-12-09T16:24:57.395Z,85.58
2018-12-09T16:27:23.109Z,84.51
2018-12-09T16:29:48.910Z,85.45
2018-12-09T16:32:14.748Z,85.27
2018-12-09T16:34:40.505Z,85.80
2018-12-09T16:37:06.247Z,85.78
2018-12-09T16:39:32.107Z,86.07
2018-12-09T16:41:57.838Z,86.13
2018-12-09T16:44:23.579Z,86.55
2018-12-09T16:46:49.301Z,86.61
2018-12-09T16:49:15.161Z,86.65
2018-12-09T16:51:40.981Z,86.84
2018-12-09T16:54:06.731Z,87.14
2018-12-09T16:56:32.655Z,86.90
2018-12-09T16:58:58.486Z,86.88
2018-12-09T17:01:31.099Z,87.44
2018-12-09T17:03:56.877Z,87.29
2018-12-09T17:06:22.699Z,86.87
2018-12-09T17:08:48.458Z,86.42
2018-12-09T17:11:14.206Z,86.65
2018-12-09T17:13:40.067Z,86.25
2018-12-09T17:16:05.825Z,86.32
2018-12-09T17:18:31.598Z,84.35
2018-12-09T17:20:57.341Z,84.92
2018-12-09T17:23:23.065Z,84.54
2018-12-09T17:25:48.826Z,85.64
2018-12-09T17:28:14.545Z,84.66
2018-12-09T17:30:40.282Z,84.87
2018-12-09T17:33:06.021Z,85.51
2018-12-09T17:35:32.051Z,84.13
2018-12-09T17:37:57.771Z,84.50
2018-12-09T17:40:23.522Z,85.02
2018-12-09T17:42:49.278Z,84.00
2018-12-09T17:45:15.146Z,84.92
2018-12-09T17:47:40.895Z,83.80
2018-12-09T17:50:07.250Z,84.53
2018-12-09T17:52:33.006Z,83.38
2018-12-09T17:54:58.825Z,83.14
2018-12-09T17:57:24.569Z,82.52
2018-12-09T17:59:50.321Z,82.92
2018-12-09T18:02:16.049Z,81.82
2018-12-09T18:04:41.900Z,82.04
2018-12-09T18:07:07.640Z,82.94
2018-12-09T18:09:33.391Z,83.54
2018-12-09T18:11:59.335Z,83.64
2018-12-09T18:14:25.085Z,84.39
2018-12-09T18:16:50.847Z,84.30
2018-12-09T18:19:16.800Z,83.98
2018-12-09T18:21:49.611Z,82.82
2018-12-09T18:24:15.339Z,82.35
2018-12-09T18:26:41.202Z,82.76
2018-12-09T18:29:06.938Z,83.02
2018-12-09T18:31:33.187Z,84.20
2018-12-09T18:33:58.930Z,83.66
2018-12-09T18:36:24.666Z,84.32
2018-12-09T18:38:50.487Z,85.10
2018-12-09T18:41:16.351Z,84.16
2018-12-09T18:43:49.181Z,85.18
2018-12-09T18:46:14.931Z,84.51
2018-12-09T18:48:40.768Z,84.88
2018-12-09T18:51:06.606Z,84.75
2018-12-09T18:53:32.459Z,84.40
2018-12-09T18:55:58.246Z,84.21
2018-12-09T18:58:24.054Z,83.41
2018-12-09T19:00:49.902Z,83.99
2018-12-09T19:03:15.653Z,83.49
2018-12-09T19:05:41.514Z,83.62
2018-12-09T19:08:07.390Z,84.00
2018-12-09T19:10:33.361Z,83.43
2018-12-09T19:12:59.212Z,84.45
2018-12-09T19:15:24.950Z,83.69
2018-12-09T19:17:50.705Z,83.58
2018-12-09T19:20:16.456Z,83.69
2018-12-09T19:22:42.207Z,82.99
2018-12-09T19:25:08.030Z,82.47
2018-12-09T19:27:33.767Z,82.20
2018-12-09T19:29:59.607Z,82.43
2018-12-09T19:32:32.469Z,83.34
2018-12-09T19:34:58.210Z,83.06
2018-12-09T19:37:23.947Z,83.87
2018-12-09T19:39:49.714Z,84.19
2018-12-09T19:42:15.454Z,84.02
2018-12-09T19:44:41.317Z,84.11
2018-12-09T19:47:07.170Z,84.60
2018-12-09T19:49:33.042Z,84.69
2018-12-09T19:51:58.885Z,85.65
2018-12-09T19:54:24.719Z,86.75
2018-12-09T19:56:50.556Z,87.22
2018-12-09T19:59:16.407Z,87.25
2018-12-09T20:01:42.157Z,86.98
2018-12-09T20:04:07.928Z,85.79
2018-12-09T20:06:33.774Z,85.96
2018-12-09T20:08:59.521Z,85.69
2018-12-09T20:11:25.351Z,85.95
2018-12-09T20:13:51.175Z,85.73
2018-12-09T20:16:16.898Z,84.52
2018-12-09T20:18:42.638Z,84.52
2018-12-09T20:21:08.588Z,84.25
2018-12-09T20:23:34.339Z,83.29
2018-12-09T20:26:00.095Z,83.53
2018-12-09T20:28:25.868Z,79.46
2018-12-09T20:30:51.698Z,79.53
2018-12-09T20:33:17.455Z,79.40
2018-12-09T20:35:43.254Z,78.37
2018-12-09T20:38:08.980Z,78.77
2018-12-09T20:40:34.814Z,79.88
2018-12-09T20:43:00.550Z,80.30
2018-12-09T20:45:26.404Z,80.70
2018-12-09T20:47:52.266Z,81.42
2018-12-09T20:50:18.024Z,82.17
2018-12-09T20:52:43.782Z,80.08
2018-12-09T20:55:09.561Z,81.50
2018-12-09T20:57:35.401Z,80.56
2018-12-09T21:00:01.360Z,80.87
2018-12-09T21:02:27.310Z,80.75
2018-12-09T21:04:53.067Z,81.00
2018-12-09T21:07:19.351Z,80.83
2018-12-09T21:09:45.179Z,81.79
2018-12-09T21:12:10.999Z,81.25
2018-12-09T21:14:36.756Z,81.20
2018-12-09T21:17:02.520Z,80.90
2018-12-09T21:19:28.263Z,80.90
2018-12-09T21:22:01.138Z,80.97
2018-12-09T21:24:26.920Z,81.37
2018-12-09T21:26:52.775Z,81.43
2018-12-09T21:29:18.610Z,80.39
2018-12-09T21:31:44.366Z,80.66
2018-12-09T21:34:10.089Z,80.70
2018-12-09T21:36:35.851Z,80.35
2018-12-09T21:39:01.815Z,80.07
2018-12-09T21:41:27.577Z,81.38
2018-12-09T21:43:53.301Z,81.32
2018-12-09T21:46:19.155Z,80.57
2018-12-09T21:48:44.875Z,80.65
2018-12-09T21:51:10.642Z,81.38
2018-12-09T21:53:36.375Z,81.31
2018-12-09T21:56:03.337Z,81.52
2018-12-09T21:58:29.125Z,81.32
2018-12-09T22:00:54.994Z,81.76
2018-12-09T22:03:20.739Z,81.28
2018-12-09T22:05:46.487Z,82.11
2018-12-09T22:08:12.209Z,81.77
2018-12-09T22:10:39.117Z,80.58
2018-12-09T22:13:05.125Z,81.51
2018-12-09T22:15:30.952Z,80.56
2018-12-09T22:17:56.782Z,81.16
2018-12-09T22:20:22.503Z,81.42
2018-12-09T22:22:48.254Z,81.28
2018-12-09T22:25:14.028Z,81.91
2018-12-09T22:27:39.771Z,81.56
2018-12-09T22:30:05.611Z,81.33
2018-12-09T22:32:31.434Z,81.15
2018-12-09T22:34:57.168Z,80.44
2018-12-09T22:37:22.899Z,79.98
2018-12-09T22:39:48.632Z,79.18
2018-12-09T22:42:14.579Z,79.19
2018-12-09T22:44:40.459Z,79.43
2018-12-09T22:47:06.354Z,80.26
2018-12-09T22:49:32.066Z,81.32
2018-12-09T22:51:57.805Z,82.36
2018-12-09T22:54:23.652Z,83.28
2018-12-09T22:56:49.446Z,84.36
2018-12-09T22:59:15.181Z,84.42
2018-12-09T23:01:43.443Z,85.14
2018-12-09T23:04:09.935Z,85.86
2018-12-09T23:06:35.758Z,86.37
2018-12-09T23:09:01.496Z,85.86
2018-12-09T23:11:27.337Z,85.83
2018-12-09T23:13:53.066Z,86.81
2018-12-09T23:16:18.906Z,86.52
2018-12-09T23:18:44.673Z,86.56
2018-12-09T23:21:10.510Z,85.57
2018-12-09T23:23:43.326Z,85.31
2018-12-09T23:26:09.093Z,85.99
2018-12-09T23:28:34.947Z,86.06
2018-12-09T23:31:01.691Z,86.15
2018-12-09T23:33:27.550Z,85.58
2018-12-09T23:35:53.282Z,86.21
2018-12-09T23:38:19.014Z,85.79
2018-12-09T23:40:44.834Z,86.02
2018-12-09T23:43:10.573Z,85.16
2018-12-09T23:45:36.293Z,85.45
2018-12-09T23:48:02.123Z,86.38
2018-12-09T23:50:27.862Z,86.29
2018-12-09T23:52:53.619Z,84.98
2018-12-09T23:55:19.506Z,84.88
2018-12-09T23:57:45.263Z,84.38
